Time;durP1;ratioP1;P1;durP2;ratioP2;P2;SDS_P1;SDS_P2;PMS_P1;PMS_P2;Temp;Humidity;BMP_temperature;BMP_pressure;BME280_temperature;BME280_humidity;BME280_pressure;Samples;Min_cycle;Max_cycle;Signal;HPM_P1;HPM_P2
2022/05/04 00:01:47;;;;;;;7.63;1.95;;;6.50;1.00;;;;;;5016504;28;20045;-27
2022/05/04 00:04:13;;;;;;;9.65;1.77;;;6.50;1.00;;;;;;5015917;28;20104;-26
2022/05/04 00:06:39;;;;;;;9.07;1.80;;;6.50;1.00;;;;;;5014731;28;20399;-26
2022/05/04 00:09:05;;;;;;;6.32;2.20;;;6.60;1.00;;;;;;5016141;28;20564;-26
2022/05/04 00:11:30;;;;;;;8.32;2.00;;;6.60;1.00;;;;;;5014752;28;20374;-26
2022/05/04 00:13:56;;;;;;;7.78;1.55;;;6.60;1.00;;;;;;5016246;28;20137;-26
2022/05/04 00:16:22;;;;;;;10.13;2.30;;;6.80;1.00;;;;;;5015613;28;20128;-26
2022/05/04 00:18:48;;;;;;;11.32;1.80;;;6.50;1.00;;;;;;5014440;28;20050;-26
2022/05/04 00:21:13;;;;;;;10.70;1.85;;;6.50;1.00;;;;;;5014851;28;20049;-26
2022/05/04 00:23:39;;;;;;;11.60;2.58;;;6.70;1.00;;;;;;5015766;28;20048;-26
2022/05/04 00:26:05;;;;;;;7.93;1.77;;;6.70;1.00;;;;;;5015441;28;20045;-26
2022/05/04 00:28:31;;;;;;;8.73;1.65;;;6.70;1.00;;;;;;5015985;28;20053;-26
2022/05/04 00:30:57;;;;;;;5.35;1.95;;;6.70;1.00;;;;;;5015415;28;20148;-26
2022/05/04 00:33:22;;;;;;;14.13;2.42;;;6.70;1.00;;;;;;5015025;28;20104;-26
2022/05/04 00:35:48;;;;;;;8.65;2.22;;;6.90;1.00;;;;;;5015765;28;20080;-26
2022/05/04 00:38:14;;;;;;;8.75;1.90;;;6.70;1.00;;;;;;5015754;28;20488;-26
2022/05/04 00:40:40;;;;;;;7.60;1.88;;;6.60;1.00;;;;;;5015182;28;20137;-26
2022/05/04 00:43:19;;;;;;;9.95;2.38;;;6.50;1.00;;;;;;5015201;28;20049;-26
2022/05/04 00:45:45;;;;;;;7.57;2.05;;;6.40;1.00;;;;;;5015666;28;20128;-26
2022/05/04 00:48:10;;;;;;;12.00;2.35;;;6.60;1.00;;;;;;5015057;28;20133;-26
2022/05/04 00:50:36;;;;;;;6.22;2.08;;;6.80;1.00;;;;;;5015021;28;20045;-26
2022/05/04 00:53:02;;;;;;;7.40;2.35;;;6.50;1.00;;;;;;5013734;28;20061;-26
2022/05/04 00:55:28;;;;;;;10.18;2.00;;;6.60;1.00;;;;;;5013776;28;20041;-26
2022/05/04 01:00:39;;;;;;;8.55;1.85;;;6.60;1.00;;;;;;5013896;28;20485;-25
2022/05/04 01:03:05;;;;;;;10.60;2.38;;;6.70;1.00;;;;;;5013872;28;20132;-26
2022/05/04 01:05:30;;;;;;;8.30;2.17;;;6.60;1.00;;;;;;5015027;28;20054;-27
2022/05/04 01:07:56;;;;;;;6.35;1.48;;;6.50;1.00;;;;;;5014530;28;20412;-26
2022/05/04 01:10:22;;;;;;;11.18;2.42;;;6.60;1.00;;;;;;5013505;28;20054;-26
2022/05/04 01:12:49;;;;;;;12.30;2.20;;;6.50;1.00;;;;;;5014581;28;20050;-26
2022/05/04 01:15:16;;;;;;;9.68;1.50;;;6.60;1.00;;;;;;5014590;28;20124;-26
2022/05/04 01:17:42;;;;;;;10.98;2.70;;;6.60;1.00;;;;;;5014449;28;20531;-26
2022/05/04 01:20:09;;;;;;;7.70;1.92;;;6.60;1.00;;;;;;5015316;28;20072;-26
2022/05/04 01:22:38;;;;;;;13.57;2.47;;;6.50;1.00;;;;;;4997028;28;20054;-26
2022/05/04 01:25:05;;;;;;;13.63;3.85;;;6.40;29.10;;;;;;5014451;28;20049;-27
2022/05/04 01:27:30;;;;;;;11.95;2.30;;;6.50;5.40;;;;;;5014379;28;20037;-26
2022/05/04 01:29:56;;;;;;;13.27;2.50;;;6.70;15.30;;;;;;5013095;28;20046;-26
2022/05/04 01:32:22;;;;;;;11.40;3.42;;;6.60;15.90;;;;;;5014310;28;20054;-26
2022/05/04 01:34:48;;;;;;;10.30;2.13;;;6.50;14.30;;;;;;5014496;28;20046;-26
2022/05/04 01:37:13;;;;;;;8.40;2.20;;;6.60;11.50;;;;;;5013320;28;20124;-26
2022/05/04 01:39:39;;;;;;;11.50;2.58;;;6.70;11.70;;;;;;5014221;28;20370;-26
2022/05/04 01:42:06;;;;;;;8.70;2.45;;;6.50;15.20;;;;;;5014755;28;20046;-26
2022/05/04 01:44:35;;;;;;;8.45;2.15;;;6.50;16.30;;;;;;5014717;28;20053;-26
2022/05/04 01:47:01;;;;;;;12.35;2.10;;;6.40;32.60;;;;;;5013716;28;20049;-26
2022/05/04 01:49:27;;;;;;;6.72;2.55;;;6.60;60.40;;;;;;5015153;28;20046;-26
2022/05/04 01:51:53;;;;;;;6.95;2.63;;;6.40;75.00;;;;;;5014502;28;20099;-26
2022/05/04 01:54:19;;;;;;;10.77;3.08;;;6.70;94.30;;;;;;5012926;28;20064;-27
2022/05/04 01:56:45;;;;;;;11.20;2.50;;;6.40;99.40;;;;;;5013152;28;20046;-26
2022/05/04 01:59:11;;;;;;;7.75;2.60;;;6.30;99.80;;;;;;5013264;28;20057;-27
2022/05/04 02:01:38;;;;;;;7.22;2.55;;;6.30;97.30;;;;;;5013938;28;20392;-26
2022/05/04 02:04:05;;;;;;;8.48;2.78;;;6.50;95.90;;;;;;5013901;28;20108;-25
2022/05/04 02:06:31;;;;;;;9.35;2.28;;;6.40;94.70;;;;;;5013852;28;20038;-26
2022/05/04 02:08:57;;;;;;;10.38;2.55;;;6.40;92.90;;;;;;5013710;28;20496;-26
2022/05/04 02:11:23;;;;;;;7.85;2.40;;;6.40;92.00;;;;;;5013763;28;20382;-26
2022/05/04 02:13:49;;;;;;;14.45;2.58;;;6.40;84.40;;;;;;4996583;28;20140;-26
2022/05/04 02:16:15;;;;;;;12.27;2.67;;;6.40;77.80;;;;;;5012731;28;20050;-27
2022/05/04 02:18:41;;;;;;;9.32;2.55;;;6.40;69.30;;;;;;5013309;28;20108;-26
2022/05/04 02:21:07;;;;;;;19.05;3.08;;;6.50;56.10;;;;;;5013735;28;20089;-26
2022/05/04 02:23:33;;;;;;;10.15;3.20;;;6.80;48.60;;;;;;5012817;28;20085;-26
2022/05/04 02:25:58;;;;;;;11.95;3.00;;;6.40;44.80;;;;;;5014261;28;20465;-26
2022/05/04 02:28:24;;;;;;;10.68;2.55;;;6.50;43.10;;;;;;5014248;28;20042;-26
2022/05/04 02:30:50;;;;;;;12.00;2.08;;;6.50;47.40;;;;;;5013652;28;20046;-26
2022/05/04 02:33:16;;;;;;;14.07;2.42;;;6.60;48.70;;;;;;5012455;28;20042;-26
2022/05/04 02:38:27;;;;;;;9.13;2.30;;;6.50;39.00;;;;;;5014185;28;20132;-27
2022/05/04 02:40:53;;;;;;;10.38;2.60;;;6.50;37.10;;;;;;5013598;28;20502;-26
2022/05/04 02:43:19;;;;;;;6.32;2.10;;;6.50;41.50;;;;;;5013519;28;20493;-26
2022/05/04 02:45:45;;;;;;;11.40;2.15;;;6.70;54.10;;;;;;5013807;28;20046;-26
2022/05/04 02:48:11;;;;;;;8.48;2.17;;;6.50;64.20;;;;;;5014105;28;20056;-26
2022/05/04 02:50:38;;;;;;;9.40;2.20;;;6.30;76.00;;;;;;5013758;28;20041;-26
2022/05/04 02:53:04;;;;;;;10.30;2.53;;;6.40;86.90;;;;;;5013409;28;20046;-26
2022/05/04 02:55:30;;;;;;;11.27;2.63;;;6.40;92.10;;;;;;5013454;28;20133;-26
2022/05/04 02:57:56;;;;;;;10.65;2.90;;;7.10;96.30;;;;;;5012133;28;20132;-27
2022/05/04 03:00:22;;;;;;;9.70;3.15;;;6.40;99.90;;;;;;5013416;28;20081;-26
2022/05/04 03:02:48;;;;;;;15.70;3.53;;;6.40;99.90;;;;;;5013362;28;20049;-26
2022/05/04 03:05:15;;;;;;;8.68;2.58;;;6.40;98.50;;;;;;5012352;28;20132;-26
2022/05/04 03:07:41;;;;;;;10.75;2.78;;;6.30;99.30;;;;;;5013904;28;20042;-26
2022/05/04 03:10:07;;;;;;;14.73;2.13;;;6.40;90.60;;;;;;5012205;28;20065;-26
2022/05/04 03:12:33;;;;;;;11.13;2.58;;;6.50;74.70;;;;;;5012935;28;20509;-26
2022/05/04 03:14:58;;;;;;;7.57;1.90;;;6.30;68.30;;;;;;5013235;28;20054;-26
2022/05/04 03:17:25;;;;;;;10.35;2.60;;;6.70;55.60;;;;;;5012028;28;20129;-26
2022/05/04 03:19:51;;;;;;;7.90;1.77;;;6.50;43.80;;;;;;5013501;28;20403;-26
2022/05/04 03:22:16;;;;;;;8.38;1.92;;;6.50;33.20;;;;;;5015187;28;20077;-26
2022/05/04 03:24:42;;;;;;;7.72;2.50;;;6.40;15.20;;;;;;5016665;28;20436;-26
2022/05/04 03:27:08;;;;;;;6.10;2.25;;;6.50;1.00;;;;;;5016568;28;20050;-26
2022/05/04 03:29:34;;;;;;;8.57;2.20;;;6.50;1.00;;;;;;5017130;28;20073;-26
2022/05/04 03:32:00;;;;;;;9.68;2.40;;;6.80;5.30;;;;;;5016569;28;20092;-27
2022/05/04 03:34:26;;;;;;;9.30;2.15;;;6.30;17.80;;;;;;5015339;28;20049;-26
2022/05/04 03:36:52;;;;;;;10.52;2.28;;;6.30;12.00;;;;;;5017186;28;20428;-26
2022/05/04 03:39:18;;;;;;;10.38;1.92;;;6.40;4.00;;;;;;5016952;28;20076;-26
2022/05/04 03:41:44;;;;;;;11.23;2.05;;;6.30;1.00;;;;;;5015695;28;20046;-26
2022/05/04 03:44:10;;;;;;;4.45;1.55;;;6.70;1.00;;;;;;5016355;28;20132;-27
2022/05/04 03:46:48;;;;;;;10.30;1.73;;;6.50;1.00;;;;;;5016119;28;20133;-26
2022/05/04 03:49:15;;;;;;;4.43;1.52;;;6.70;1.00;;;;;;5016783;28;20049;-26
2022/05/04 03:51:41;;;;;;;6.22;1.55;;;6.70;1.00;;;;;;5016869;28;20050;-26
2022/05/04 03:54:07;;;;;;;9.63;1.67;;;6.70;1.00;;;;;;5016122;28;20503;-26
2022/05/04 03:56:33;;;;;;;7.53;1.90;;;6.80;1.00;;;;;;5016536;28;20427;-26
2022/05/04 03:59:00;;;;;;;13.15;3.10;;;6.70;1.00;;;;;;5015324;28;20047;-26
2022/05/04 04:01:25;;;;;;;7.10;2.42;;;6.50;1.00;;;;;;5014847;28;20076;-26
2022/05/04 04:03:51;;;;;;;9.18;2.05;;;6.70;1.00;;;;;;5015934;28;20484;-26
2022/05/04 04:06:17;;;;;;;11.18;2.70;;;6.60;1.00;;;;;;5016684;28;20053;-27
2022/05/04 04:08:43;;;;;;;10.13;2.25;;;6.60;1.00;;;;;;4998706;28;20575;-27
2022/05/04 04:11:10;;;;;;;9.57;2.78;;;6.70;1.00;;;;;;5014844;28;20079;-27
2022/05/04 04:13:37;;;;;;;11.52;2.33;;;6.60;1.00;;;;;;5014800;28;20050;-28
2022/05/04 04:16:03;;;;;;;8.18;2.63;;;6.60;1.00;;;;;;5014624;28;20049;-27
2022/05/04 04:18:29;;;;;;;9.50;2.65;;;6.70;1.00;;;;;;5014458;28;20095;-27
2022/05/04 04:23:41;;;;;;;8.43;2.45;;;6.60;1.00;;;;;;5015608;28;20558;-27
2022/05/04 04:26:08;;;;;;;9.70;2.45;;;6.50;1.00;;;;;;5015488;28;20049;-27
2022/05/04 04:28:34;;;;;;;8.15;2.40;;;6.50;6.30;;;;;;5015438;28;20092;-27
2022/05/04 04:31:01;;;;;;;7.20;2.40;;;6.60;20.80;;;;;;5015381;28;20053;-26
2022/05/04 04:33:27;;;;;;;9.90;2.13;;;6.50;36.80;;;;;;5014102;28;20164;-26
2022/05/04 04:35:53;;;;;;;10.32;3.38;;;6.50;44.90;;;;;;5015210;28;20501;-27
2022/05/04 04:38:19;;;;;;;7.75;2.30;;;6.70;68.30;;;;;;5015201;28;20076;-27
2022/05/04 04:40:46;;;;;;;10.38;2.15;;;6.50;72.70;;;;;;5015471;28;20057;-26
2022/05/04 04:43:12;;;;;;;8.82;2.28;;;6.50;73.40;;;;;;5013942;28;20133;-27
2022/05/04 04:45:38;;;;;;;11.00;2.78;;;6.50;72.40;;;;;;4997543;28;20470;-27
2022/05/04 04:48:04;;;;;;;14.60;3.58;;;6.60;62.10;;;;;;4981697;28;20568;-27
2022/05/04 04:50:30;;;;;;;12.20;2.30;;;6.70;28.90;;;;;;5015015;28;20081;-27
2022/05/04 04:52:56;;;;;;;7.07;1.83;;;6.70;20.70;;;;;;5014930;28;20061;-27
2022/05/04 04:55:21;;;;;;;10.60;2.30;;;6.80;3.30;;;;;;5014926;28;20555;-27
2022/05/04 04:57:47;;;;;;;11.52;2.60;;;6.90;1.00;;;;;;5014817;28;20048;-27
2022/05/04 05:00:14;;;;;;;10.02;2.22;;;7.00;1.00;;;;;;5014256;28;20124;-26
2022/05/04 05:02:40;;;;;;;8.90;2.20;;;7.00;1.00;;;;;;5014800;28;20050;-27
2022/05/04 05:05:07;;;;;;;10.02;2.20;;;7.20;1.00;;;;;;5014793;28;20050;-27
2022/05/04 05:07:33;;;;;;;8.63;2.50;;;7.00;1.00;;;;;;5014665;28;20052;-27
2022/05/04 05:09:58;;;;;;;11.63;2.10;;;7.00;1.00;;;;;;5014563;28;20066;-27
2022/05/04 05:12:24;;;;;;;16.27;2.10;;;7.10;1.00;;;;;;5013198;28;20058;-27
2022/05/04 05:17:35;;;;;;;6.40;1.98;;;7.20;1.00;;;;;;5015321;28;20096;-27
2022/05/04 05:20:02;;;;;;;9.50;2.65;;;7.30;1.00;;;;;;5013934;28;20082;-27
2022/05/04 05:22:28;;;;;;;8.80;2.13;;;7.30;1.00;;;;;;5014383;28;20081;-26
2022/05/04 05:24:55;;;;;;;12.07;2.03;;;7.30;1.00;;;;;;5014767;28;20096;-27
2022/05/04 05:27:22;;;;;;;10.75;2.50;;;7.40;1.00;;;;;;5015267;28;20441;-27
2022/05/04 05:29:48;;;;;;;9.25;2.40;;;7.40;1.00;;;;;;5013169;28;20045;-27
2022/05/04 05:32:13;;;;;;;7.80;1.90;;;7.40;1.00;;;;;;5014334;28;20049;-27
2022/05/04 05:34:39;;;;;;;12.32;2.67;;;7.50;1.00;;;;;;5014274;28;20059;-27
2022/05/04 05:37:05;;;;;;;12.52;2.70;;;7.50;1.00;;;;;;5014197;28;20132;-27
2022/05/04 05:39:31;;;;;;;11.85;2.65;;;7.60;1.00;;;;;;5014257;28;20049;-27
2022/05/04 05:41:56;;;;;;;10.48;2.45;;;7.60;1.00;;;;;;5014745;28;20531;-27
2022/05/04 05:44:22;;;;;;;11.15;2.38;;;7.70;1.00;;;;;;5013270;28;20488;-27
2022/05/04 05:46:48;;;;;;;11.82;2.50;;;7.90;1.00;;;;;;5014145;28;20124;-27
2022/05/04 05:49:13;;;;;;;11.75;3.00;;;7.80;1.00;;;;;;5014106;28;20496;-27
2022/05/04 05:51:39;;;;;;;7.53;2.00;;;7.90;1.00;;;;;;5013997;28;20156;-27
2022/05/04 05:54:05;;;;;;;10.85;2.90;;;8.00;1.00;;;;;;5014077;28;20041;-27
2022/05/04 05:56:31;;;;;;;10.32;2.30;;;8.00;1.00;;;;;;4996837;28;20049;-27
2022/05/04 05:58:56;;;;;;;8.85;1.65;;;8.10;1.00;;;;;;5013657;28;20046;-27
2022/05/04 06:01:22;;;;;;;8.52;2.17;;;8.00;1.00;;;;;;5012983;28;20045;-27
2022/05/04 06:03:49;;;;;;;9.00;2.45;;;8.10;1.00;;;;;;5013936;28;20088;-27
2022/05/04 06:06:15;;;;;;;7.53;2.05;;;8.10;1.00;;;;;;5013909;28;20081;-27
2022/05/04 06:08:40;;;;;;;12.30;2.67;;;8.10;1.00;;;;;;5012662;28;20519;-27
2022/05/04 06:11:06;;;;;;;8.15;1.77;;;8.10;1.00;;;;;;5014463;28;20539;-27
2022/05/04 06:13:32;;;;;;;11.20;1.70;;;8.20;1.00;;;;;;5014361;28;20103;-27
2022/05/04 06:15:58;;;;;;;8.10;2.60;;;8.20;1.00;;;;;;5013744;28;20053;-27
2022/05/04 06:18:23;;;;;;;11.25;2.78;;;8.10;1.00;;;;;;5013805;28;20539;-27
2022/05/04 06:20:49;;;;;;;10.73;1.90;;;8.30;1.00;;;;;;5013747;28;20084;-27
2022/05/04 06:23:15;;;;;;;9.60;1.85;;;8.40;1.00;;;;;;5012758;28;20128;-27
2022/05/04 06:25:42;;;;;;;8.07;1.88;;;8.20;1.00;;;;;;4996973;28;20432;-27
2022/05/04 06:28:07;;;;;;;7.80;1.48;;;8.30;1.00;;;;;;5013746;28;20378;-27
2022/05/04 06:36:02;;;;;;;7.38;1.42;;;8.30;1.00;;;;;;5013573;28;20053;-27
2022/05/04 06:38:28;;;;;;;7.93;1.67;;;8.30;99.90;;;;;;5013359;28;20134;-27
2022/05/04 06:40:54;;;;;;;11.98;2.65;;;8.30;99.90;;;;;;5013586;28;20464;-27
2022/05/04 06:43:20;;;;;;;9.95;2.03;;;8.60;99.90;;;;;;5013555;28;20049;-27
2022/05/04 06:45:46;;;;;;;11.13;1.95;;;8.50;99.90;;;;;;5012543;28;20045;-27
2022/05/04 06:48:12;;;;;;;7.65;1.67;;;8.50;99.90;;;;;;5012870;28;20081;-27
2022/05/04 06:50:38;;;;;;;5.78;1.25;;;8.60;99.90;;;;;;5013718;28;20046;-27
2022/05/04 06:53:03;;;;;;;6.82;1.45;;;8.80;99.90;;;;;;4995796;28;20386;-27
2022/05/04 06:55:29;;;;;;;9.93;2.00;;;8.80;99.90;;;;;;5014636;28;20092;-27
2022/05/04 06:57:55;;;;;;;6.28;1.77;;;8.90;99.90;;;;;;5017110;28;20042;-27
2022/05/04 07:00:20;;;;;;;7.82;1.60;;;8.90;99.90;;;;;;5017394;28;20049;-27
2022/05/04 07:02:46;;;;;;;8.00;1.85;;;8.90;99.90;;;;;;5016112;28;20050;-27
2022/05/04 07:05:12;;;;;;;6.68;2.20;;;9.00;99.90;;;;;;5016077;28;20050;-27
2022/05/04 07:07:38;;;;;;;9.77;1.70;;;9.40;99.90;;;;;;5016990;28;20045;-27
2022/05/04 07:10:04;;;;;;;8.93;1.60;;;9.30;99.90;;;;;;5016892;28;20145;-27
2022/05/04 07:12:30;;;;;;;10.48;1.75;;;9.50;99.90;;;;;;4999605;28;20057;-27
2022/05/04 07:14:58;;;;;;;9.27;1.60;;;9.60;99.90;;;;;;5015734;28;20241;-27
2022/05/04 07:17:24;;;;;;;6.68;1.52;;;9.60;99.90;;;;;;5015910;28;20473;-27
2022/05/04 07:19:51;;;;;;;11.13;2.60;;;9.90;99.90;;;;;;5017575;28;20092;-27
2022/05/04 07:22:17;;;;;;;9.88;2.05;;;9.80;99.90;;;;;;5017259;28;20050;-27
2022/05/04 07:24:43;;;;;;;5.65;1.50;;;9.70;99.90;;;;;;5016666;28;20132;-27
2022/05/04 07:27:08;;;;;;;10.10;1.73;;;9.80;99.90;;;;;;5015644;28;20097;-27
2022/05/04 07:29:34;;;;;;;6.50;1.60;;;9.80;99.90;;;;;;5016305;28;20046;-27
2022/05/04 07:32:01;;;;;;;8.63;1.80;;;9.80;99.90;;;;;;5016553;28;20056;-27
2022/05/04 07:34:27;;;;;;;11.82;2.03;;;9.90;99.90;;;;;;5016523;28;20038;-27
2022/05/04 07:36:52;;;;;;;6.95;1.60;;;10.00;99.90;;;;;;5015383;28;20495;-28
2022/05/04 07:42:25;;;;;;;9.82;1.73;;;9.90;99.90;;;;;;5014810;28;20050;-27
2022/05/04 07:45:00;;;;;;;10.10;3.25;;;9.70;99.90;;;;;;5016408;28;20100;-27
2022/05/04 07:47:28;;;;;;;4.63;1.20;;;9.90;99.90;;;;;;5016157;28;20066;-27
2022/05/04 07:49:55;;;;;;;7.28;1.83;;;10.00;99.90;;;;;;5016210;28;20473;-27
2022/05/04 07:52:21;;;;;;;5.93;1.60;;;9.90;99.90;;;;;;5016102;28;20485;-27
2022/05/04 07:54:47;;;;;;;11.68;1.83;;;9.80;99.90;;;;;;5016160;28;20052;-27
2022/05/04 07:57:12;;;;;;;11.40;1.60;;;9.80;99.90;;;;;;5015962;28;20050;-27
2022/05/04 07:59:38;;;;;;;8.52;1.63;;;9.80;99.90;;;;;;5016028;28;20374;-28
2022/05/04 08:04:49;;;;;;;8.88;1.98;;;9.90;99.90;;;;;;5015795;28;20089;-27
2022/05/04 08:07:19;;;;;;;9.27;1.85;;;9.90;99.90;;;;;;5015110;28;20057;-27
2022/05/04 08:09:45;;;;;;;6.50;1.33;;;10.00;99.90;;;;;;5015867;28;20168;-27
2022/05/04 08:12:12;;;;;;;11.43;1.52;;;10.00;99.90;;;;;;5015800;28;20485;-27
2022/05/04 08:14:40;;;;;;;8.43;1.05;;;10.10;99.90;;;;;;5015780;28;20467;-27
2022/05/04 08:17:07;;;;;;;4.05;0.88;;;10.00;99.90;;;;;;5014519;28;20085;-27
2022/05/04 08:19:33;;;;;;;9.05;1.65;;;10.20;99.90;;;;;;5015627;28;20050;-27
2022/05/04 08:21:59;;;;;;;5.03;1.30;;;10.50;99.90;;;;;;4998854;28;20473;-27
2022/05/04 08:24:25;;;;;;;7.68;1.27;;;10.80;99.90;;;;;;5015564;28;20053;-27
2022/05/04 08:26:51;;;;;;;13.05;2.03;;;11.10;99.90;;;;;;5015499;28;20060;-27
2022/05/04 08:29:17;;;;;;;6.53;1.67;;;11.40;99.90;;;;;;5015392;28;20133;-27
2022/05/04 08:31:43;;;;;;;7.72;1.77;;;11.40;83.50;;;;;;4998106;28;20211;-27
2022/05/04 08:34:09;;;;;;;7.40;1.52;;;11.30;69.40;;;;;;5016141;28;20046;-27
2022/05/04 08:36:38;;;;;;;7.55;1.40;;;11.20;96.00;;;;;;5015254;28;20053;-27
2022/05/04 08:39:08;;;;;;;8.10;1.75;;;11.20;91.80;;;;;;5014055;28;20038;-28
2022/05/04 08:41:39;;;;;;;6.82;1.83;;;11.20;96.00;;;;;;5015243;28;20056;-27
2022/05/04 08:44:08;;;;;;;9.32;1.50;;;11.00;90.40;;;;;;5014643;28;20393;-27
2022/05/04 08:46:38;;;;;;;6.35;1.77;;;10.80;99.90;;;;;;5015123;28;20041;-28
2022/05/04 08:49:05;;;;;;;6.03;1.55;;;10.60;99.90;;;;;;5013875;28;20046;-27
2022/05/04 08:51:31;;;;;;;8.27;1.63;;;10.60;99.90;;;;;;5015869;28;20088;-28
2022/05/04 08:53:57;;;;;;;7.93;1.42;;;10.90;99.90;;;;;;5014917;28;20092;-27
2022/05/04 08:56:23;;;;;;;6.97;1.50;;;11.00;99.90;;;;;;5013753;28;20085;-27
2022/05/04 08:58:48;;;;;;;10.75;1.83;;;10.90;94.80;;;;;;5013724;28;20412;-27
2022/05/04 09:01:14;;;;;;;11.00;2.20;;;11.00;66.70;;;;;;4997608;28;20050;-27
2022/05/04 09:03:40;;;;;;;7.07;1.90;;;11.40;99.90;;;;;;5013859;28;20061;-27
2022/05/04 09:06:06;;;;;;;7.93;1.45;;;11.50;73.00;;;;;;5014841;28;20052;-27
2022/05/04 09:08:55;;;;;;;7.10;1.38;;;11.50;54.10;;;;;;5015097;28;20053;-27
2022/05/04 09:11:23;;;;;;;5.00;1.38;;;11.50;63.60;;;;;;5014794;28;20056;-28
2022/05/04 09:13:49;;;;;;;6.45;1.20;;;11.30;82.20;;;;;;5014669;28;20049;-27
2022/05/04 09:16:25;;;;;;;5.95;1.27;;;11.40;73.80;;;;;;5014329;28;20488;-27
2022/05/04 09:18:50;;;;;;;8.70;1.30;;;11.60;90.90;;;;;;5013928;28;20081;-27
2022/05/04 09:21:23;;;;;;;5.88;1.38;;;11.90;5.80;;;;;;5014375;28;20081;-27
2022/05/04 09:23:52;;;;;;;10.05;1.65;;;12.00;1.00;;;;;;5014607;28;20054;-27
2022/05/04 09:26:20;;;;;;;6.88;1.52;;;12.20;1.00;;;;;;5014485;28;20042;-27
2022/05/04 09:29:01;;;;;;;8.02;1.30;;;12.30;1.00;;;;;;4997103;28;20053;-27
2022/05/04 09:31:30;;;;;;;7.43;1.70;;;12.40;1.00;;;;;;5014986;28;20046;-27
2022/05/04 09:34:06;;;;;;;7.38;1.23;;;12.60;1.00;;;;;;5014400;28;20053;-28
2022/05/04 09:36:37;;;;;;;8.95;1.80;;;12.70;1.00;;;;;;5015126;28;20052;-28
2022/05/04 09:45:12;;;;;;;5.20;1.58;;;12.90;1.00;;;;;;5014174;28;20489;-27
2022/05/04 09:47:40;;;;;;;10.95;1.88;;;12.60;1.00;;;;;;5014144;28;20052;-27
2022/05/04 09:50:06;;;;;;;10.05;1.63;;;12.50;1.00;;;;;;5014150;28;20092;-27
2022/05/04 09:52:44;;;;;;;7.32;1.70;;;12.20;1.00;;;;;;5013000;28;20046;-28
2022/05/04 09:55:22;;;;;;;7.88;1.60;;;12.20;1.00;;;;;;5013098;28;20056;-27
2022/05/04 09:57:48;;;;;;;11.73;2.03;;;12.10;1.00;;;;;;5014101;28;20046;-27
2022/05/04 10:00:18;;;;;;;5.50;1.70;;;12.10;1.00;;;;;;5014827;28;20052;-27
2022/05/04 10:02:45;;;;;;;12.88;2.90;;;12.20;1.00;;;;;;5014204;28;20057;-29
2022/05/04 10:05:11;;;;;;;6.20;1.48;;;12.30;1.00;;;;;;5012929;28;20501;-27
2022/05/04 10:07:37;;;;;;;7.63;2.00;;;12.50;1.00;;;;;;5013904;28;20056;-27
2022/05/04 10:10:05;;;;;;;8.75;2.10;;;12.60;1.00;;;;;;5014324;28;20146;-27
2022/05/04 10:12:32;;;;;;;13.85;2.30;;;13.10;1.00;;;;;;5012624;28;20053;-28
2022/05/04 10:14:58;;;;;;;9.23;2.15;;;13.00;1.00;;;;;;5013807;28;20112;-28
2022/05/04 10:17:26;;;;;;;9.73;1.95;;;13.30;1.00;;;;;;4996259;28;20397;-27
2022/05/04 10:20:12;;;;;;;6.78;1.77;;;13.20;1.00;;;;;;5014415;28;20446;-28
2022/05/04 10:22:57;;;;;;;6.63;1.65;;;13.00;1.00;;;;;;5013839;28;20076;-27
2022/05/04 10:25:24;;;;;;;7.28;1.45;;;12.80;1.00;;;;;;5014593;28;20064;-27
2022/05/04 10:27:50;;;;;;;6.20;1.70;;;12.80;1.00;;;;;;5012585;28;20042;-28
2022/05/04 10:30:32;;;;;;;6.40;2.00;;;13.00;1.00;;;;;;5013831;28;20046;-27
2022/05/04 10:32:59;;;;;;;8.00;1.83;;;13.70;1.00;;;;;;5018559;28;20049;-27
2022/05/04 10:35:48;;;;;;;7.70;1.70;;;14.20;1.00;;;;;;5017617;28;20042;-27
2022/05/04 10:38:27;;;;;;;6.05;1.75;;;14.30;1.00;;;;;;5017503;28;20042;-28
2022/05/04 10:41:01;;;;;;;4.90;1.67;;;14.60;1.00;;;;;;5017294;28;20501;-28
2022/05/04 10:43:37;;;;;;;9.18;2.00;;;14.00;1.00;;;;;;5017476;28;20054;-27
2022/05/04 10:46:11;;;;;;;5.95;1.48;;;13.90;1.00;;;;;;5016217;28;20042;-27
2022/05/04 10:48:41;;;;;;;6.30;2.13;;;14.20;1.00;;;;;;5017368;28;20041;-28
2022/05/04 10:51:11;;;;;;;6.88;2.28;;;14.10;1.00;;;;;;5015738;28;20091;-28
2022/05/04 10:53:42;;;;;;;6.82;1.90;;;13.70;1.00;;;;;;5024706;28;20112;-27
2022/05/04 10:56:15;;;;;;;7.63;1.65;;;14.10;1.00;;;;;;5017587;28;20041;-28
2022/05/04 10:58:43;;;;;;;;;;;15.20;1.00;;;;;;5021240;28;20056;-28
2022/05/04 11:01:31;;;;;;;10.25;4.55;;;16.10;99.90;;;;;;5023123;28;19925;-28
2022/05/04 11:04:11;;;;;;;8.80;2.30;;;16.30;99.90;;;;;;5027110;28;20058;-28
2022/05/04 11:06:37;;;;;;;6.45;1.70;;;15.70;99.90;;;;;;5020712;28;20497;-27
2022/05/04 11:09:25;;;;;;;5.47;1.95;;;15.30;99.90;;;;;;5028159;28;20048;-28
2022/05/04 11:11:53;;;;;;;9.25;1.98;;;15.10;99.90;;;;;;5028839;28;20111;-27
2022/05/04 11:14:23;;;;;;;11.27;2.08;;;14.50;99.90;;;;;;5024752;28;20120;-28
2022/05/04 11:16:51;;;;;;;9.57;1.67;;;14.10;99.90;;;;;;5033726;28;20081;-28
2022/05/04 11:19:18;;;;;;;6.47;2.00;;;14.40;99.90;;;;;;5027544;28;20042;-28
2022/05/04 11:21:44;;;;;;;11.48;2.20;;;15.20;99.90;;;;;;5016195;28;20412;-28
2022/05/04 11:24:12;;;;;;;7.40;1.75;;;16.00;99.90;;;;;;5018131;28;20093;-28
2022/05/04 11:26:44;;;;;;;8.98;2.42;;;16.00;99.90;;;;;;5022119;28;20435;-28
2022/05/04 11:29:14;;;;;;;;;;;16.20;99.90;;;;;;5022136;28;20057;-28
2022/05/04 11:31:57;;;;;;;9.07;2.40;;;16.50;99.90;;;;;;5022278;28;19929;-28
2022/05/04 11:34:27;;;;;;;7.75;1.98;;;17.00;99.90;;;;;;5023284;28;20049;-28
2022/05/04 11:36:59;;;;;;;7.90;1.80;;;17.10;99.90;;;;;;5022577;28;20496;-27
2022/05/04 11:39:28;;;;;;;7.13;1.80;;;17.80;99.90;;;;;;5022378;28;20037;-27
2022/05/04 11:41:56;;;;;;;5.90;1.55;;;18.10;99.90;;;;;;5033773;28;20034;-28
2022/05/04 11:44:24;;;;;;;13.07;2.25;;;17.80;99.90;;;;;;5001657;28;20080;-27
2022/05/04 11:46:54;;;;;;;6.97;2.03;;;18.20;99.90;;;;;;5022448;28;20038;-27
2022/05/04 11:49:22;;;;;;;11.35;4.45;;;18.70;99.90;;;;;;5018002;28;20172;-29
2022/05/04 11:51:49;;;;;;;6.53;1.90;;;19.10;99.90;;;;;;5021505;28;20424;-27
2022/05/04 11:54:15;;;;;;;4.38;1.58;;;19.40;99.90;;;;;;5017780;28;20064;-28
2022/05/04 11:56:41;;;;;;;8.60;1.92;;;19.60;99.90;;;;;;5021247;28;20045;-27
2022/05/04 11:59:07;;;;;;;5.43;1.70;;;19.40;99.90;;;;;;5014472;28;20768;-28
2022/05/04 12:01:33;;;;;;;3.88;1.52;;;19.30;99.90;;;;;;5019074;28;20049;-27
2022/05/04 12:04:00;;;;;;;10.38;2.65;;;19.20;99.90;;;;;;5020005;28;20516;-27
2022/05/04 12:06:26;;;;;;;11.25;1.80;;;18.70;99.90;;;;;;5015666;28;20049;-28
2022/05/04 12:08:54;;;;;;;8.65;1.90;;;17.10;99.90;;;;;;5015760;28;20107;-27
2022/05/04 12:11:22;;;;;;;7.85;1.70;;;15.60;99.90;;;;;;5024688;28;20519;-28
2022/05/04 12:13:50;;;;;;;9.70;2.22;;;14.70;99.90;;;;;;5003978;28;20088;-28
2022/05/04 12:16:17;;;;;;;8.40;2.38;;;14.10;99.90;;;;;;5018129;28;20052;-30
2022/05/04 12:18:43;;;;;;;6.15;1.55;;;14.20;99.90;;;;;;5000683;28;20100;-27
2022/05/04 12:21:14;;;;;;;7.35;2.20;;;14.50;1.00;;;;;;5017735;28;20034;-27
2022/05/04 12:23:45;;;;;;;6.00;2.03;;;14.70;99.90;;;;;;5023266;28;20041;-27
2022/05/04 12:26:12;;;;;;;6.68;2.05;;;15.20;99.90;;;;;;5015678;28;20084;-28
2022/05/04 12:28:39;;;;;;;7.15;2.15;;;15.80;99.90;;;;;;5026744;28;20050;-27
2022/05/04 12:33:51;;;;;;;6.13;1.70;;;17.70;99.90;;;;;;5034701;28;20061;-27
2022/05/04 12:36:20;;;;;;;5.72;1.65;;;18.50;99.90;;;;;;5026067;28;20072;-27
2022/05/04 12:38:49;;;;;;;9.23;2.10;;;18.80;99.90;;;;;;5026647;28;20054;-27
2022/05/04 12:41:17;;;;;;;8.30;1.90;;;19.10;99.90;;;;;;5021754;28;20389;-29
2022/05/04 12:43:44;;;;;;;10.90;2.78;;;19.00;99.90;;;;;;5018443;28;20049;-27
2022/05/04 12:46:12;;;;;;;7.85;1.83;;;18.40;99.90;;;;;;5017004;28;20172;-27
2022/05/04 12:48:45;;;;;;;6.43;2.03;;;18.10;99.90;;;;;;5022559;28;20111;-27
2022/05/04 12:51:13;;;;;;;6.00;1.70;;;18.20;99.90;;;;;;5016539;28;20133;-28
2022/05/04 12:53:39;;;;;;;10.05;1.50;;;18.20;99.90;;;;;;5017217;28;20504;-28
2022/05/04 12:58:51;;;;;;;4.80;1.73;;;17.80;99.90;;;;;;5024548;28;20190;-27
2022/05/04 13:01:19;;;;;;;7.05;1.90;;;17.70;99.90;;;;;;5024091;28;20048;-27
2022/05/04 13:03:46;;;;;;;9.60;1.80;;;18.20;99.90;;;;;;5034607;28;20046;-27
2022/05/04 13:06:11;;;;;;;6.28;2.22;;;18.20;99.90;;;;;;5023801;28;20175;-27
2022/05/04 13:08:37;;;;;;;8.93;2.08;;;17.20;99.90;;;;;;5029209;28;20084;-27
2022/05/04 13:11:05;;;;;;;10.00;2.15;;;16.80;99.90;;;;;;5034695;28;20496;-27
2022/05/04 13:13:30;;;;;;;7.63;2.08;;;17.60;99.90;;;;;;5030298;28;20088;-27
2022/05/04 13:15:56;;;;;;;7.75;2.05;;;17.80;99.90;;;;;;4997365;28;20046;-27
2022/05/04 13:18:22;;;;;;;10.38;1.77;;;17.40;99.90;;;;;;5031975;28;20392;-27
2022/05/04 13:20:51;;;;;;;9.48;2.10;;;16.90;99.90;;;;;;5034320;28;20457;-27
2022/05/04 13:23:18;;;;;;;5.47;1.52;;;17.00;99.90;;;;;;5034233;28;20104;-27
2022/05/04 13:25:44;;;;;;;7.63;2.30;;;16.60;99.90;;;;;;5032035;28;20455;-27
2022/05/04 13:28:10;;;;;;;8.68;1.98;;;15.80;99.90;;;;;;5026067;28;20038;-28
2022/05/04 13:30:35;;;;;;;9.13;2.08;;;16.00;99.90;;;;;;5015058;28;20103;-28